Green Lofoten — P3MG8 — position and weather

sailwx.info

Track history (hours):
 
Tides and Currents Weather Stations Pressure Air Temp Water Temp Dewpoint Dewpoint Depression Visibility Wind Speed Wind Dir Waves Ship Positions

Green Lofoten

Last reported at 2014-Nov-19 17:29 UTC. Time now 2014-Nov-23 01:10 UTC.
Position N 62°38' W 008°51'.

Length 98 m; draft 4.8 m.

Type: Cargo ship. MMSI: 212857000.

Date/timePositionNaut miles runAvg speedWind from/ knotsBaromVisibWave heightAir tempDewpointWater temp
2014-Nov-19 17:29N 62°38' W 008°51'4614.3
2014-Nov-19 14:15N 62°30' W 007°12'3814.3
2014-Nov-19 11:33N 62°19' W 005°52'40914.9
2014-Nov-18 08:10N 58°22' E 005°21'1015.0
2014-Nov-18 07:31N 58°17' E 005°36'1516.0
2014-Nov-18 06:33N 58°06' E 005°57'14514.6
2014-Nov-17 20:33N 57°50' E 010°29'1514.5
2014-Nov-17 19:33N 57°44' E 010°55'1515.4
2014-Nov-17 18:34N 57°33' E 011°15'1514.9
2014-Nov-17 17:34N 57°21' E 011°31'5914.8
2014-Nov-17 13:33N 56°24' E 012°02'1414.4
2014-Nov-17 12:34N 56°13' E 012°19'1616.4
2014-Nov-17 11:33N 56°02' E 012°40'1413.9
2014-Nov-17 10:34N 55°48' E 012°43'1414.1
2014-Nov-17 09:33N 55°34' E 012°42'1414.1
2014-Nov-17 08:33N 55°20' E 012°42'1414.1
2014-Nov-17 07:33N 55°15' E 013°05'3414.7
2014-Nov-17 05:15N 55°14' E 014°05'1213.5
2014-Nov-17 04:24N 55°18' E 014°23'1314.7
2014-Nov-17 03:30N 55°27' E 014°40'1414.6
2014-Nov-17 02:31N 55°34' E 015°03'1814.2
2014-Nov-17 01:17N 55°43' E 015°29'2414.0
2014-Nov-16 23:33N 55°56' E 016°06'1414.4
2014-Nov-16 22:33N 56°04' E 016°28'29714.0
2014-Nov-16 01:17N 59°35' E 022°59'1114.6
2014-Nov-16 00:33N 59°38' E 023°19'1514.6
2014-Nov-15 23:33N 59°42' E 023°47'1514.6
2014-Nov-15 22:33N 59°45' E 024°15'5814.3
2014-Nov-15 18:29N 59°58' E 026°08'1314.0
2014-Nov-15 17:33N 60°01' E 026°34'10612.8
2014-Nov-15 09:17N 59°54' E 030°05'  
2014-Nov-12 05:13N 59°58' E 027°01'812.4
2014-Nov-12 04:33N 59°59' E 026°45'1312.4
2014-Nov-12 03:32N 59°57' E 026°20'4912.4
2014-Nov-11 23:33N 59°46' E 024°44'1312.4
2014-Nov-11 22:33N 59°43' E 024°20'1411.6
2014-Nov-11 21:22N 59°39' E 023°54'911.0
2014-Nov-11 20:33N 59°36' E 023°37'1110.9
2014-Nov-11 19:33N 59°32' E 023°17'42813.3
2014-Nov-10 11:15N 54°13' E 014°35'1013.7
2014-Nov-10 10:33N 54°06' E 014°24'1111.0
2014-Nov-10 09:33N 53°56' E 014°17'2 2.1
2014-Nov-10 08:32N 53°54' E 014°16'0 0.0
2014-Nov-10 07:32N 53°54' E 014°16'0 0.0
2014-Nov-10 06:32N 53°54' E 014°16'0 0.0
2014-Nov-10 05:32N 53°54' E 014°16'0 0.0
2014-Nov-10 04:32N 53°54' E 014°16'0 0.0
2014-Nov-10 03:32N 53°54' E 014°16'0 0.0
2014-Nov-10 02:29N 53°54' E 014°16'0 0.0
2014-Nov-10 01:32N 53°54' E 014°16'0 0.0
2014-Nov-10 00:32N 53°54' E 014°16'0 0.0
2014-Nov-09 23:32N 53°54' E 014°16'4 3.7
2014-Nov-09 22:33N 53°57' E 014°16'1111.3
2014-Nov-09 21:33N 54°08' E 014°12'  
Track history (hours):
 
Tides and Currents Weather Stations Pressure Air Temp Water Temp Dewpoint Dewpoint Depression Visibility Wind Speed Wind Dir Waves Ship Positions

Green Lofoten

Last reported at 2014-Nov-19 17:29 UTC. Time now 2014-Nov-23 01:10 UTC.
Position N 62°38' W 008°51'.

Length 98 m; draft 4.8 m.

Type: Cargo ship. MMSI: 212857000.

Date/timePositionNaut miles runAvg speedWind from/ knotsBaromVisibWave heightAir tempDewpointWater temp
2014-Nov-19 17:29N 62°38' W 008°51'4614.3
2014-Nov-19 14:15N 62°30' W 007°12'3814.3
2014-Nov-19 11:33N 62°19' W 005°52'40914.9
2014-Nov-18 08:10N 58°22' E 005°21'1015.0
2014-Nov-18 07:31N 58°17' E 005°36'1516.0
2014-Nov-18 06:33N 58°06' E 005°57'14514.6
2014-Nov-17 20:33N 57°50' E 010°29'1514.5
2014-Nov-17 19:33N 57°44' E 010°55'1515.4
2014-Nov-17 18:34N 57°33' E 011°15'1514.9
2014-Nov-17 17:34N 57°21' E 011°31'5914.8
2014-Nov-17 13:33N 56°24' E 012°02'1414.4
2014-Nov-17 12:34N 56°13' E 012°19'1616.4
2014-Nov-17 11:33N 56°02' E 012°40'1413.9
2014-Nov-17 10:34N 55°48' E 012°43'1414.1
2014-Nov-17 09:33N 55°34' E 012°42'1414.1
2014-Nov-17 08:33N 55°20' E 012°42'1414.1
2014-Nov-17 07:33N 55°15' E 013°05'3414.7
2014-Nov-17 05:15N 55°14' E 014°05'1213.5
2014-Nov-17 04:24N 55°18' E 014°23'1314.7
2014-Nov-17 03:30N 55°27' E 014°40'1414.6
2014-Nov-17 02:31N 55°34' E 015°03'1814.2
2014-Nov-17 01:17N 55°43' E 015°29'2414.0
2014-Nov-16 23:33N 55°56' E 016°06'1414.4
2014-Nov-16 22:33N 56°04' E 016°28'29714.0
2014-Nov-16 01:17N 59°35' E 022°59'1114.6
2014-Nov-16 00:33N 59°38' E 023°19'1514.6
2014-Nov-15 23:33N 59°42' E 023°47'1514.6
2014-Nov-15 22:33N 59°45' E 024°15'5814.3
2014-Nov-15 18:29N 59°58' E 026°08'1314.0
2014-Nov-15 17:33N 60°01' E 026°34'10612.8
2014-Nov-15 09:17N 59°54' E 030°05'  
2014-Nov-12 05:13N 59°58' E 027°01'812.4
2014-Nov-12 04:33N 59°59' E 026°45'1312.4
2014-Nov-12 03:32N 59°57' E 026°20'4912.4
2014-Nov-11 23:33N 59°46' E 024°44'1312.4
2014-Nov-11 22:33N 59°43' E 024°20'1411.6
2014-Nov-11 21:22N 59°39' E 023°54'911.0
2014-Nov-11 20:33N 59°36' E 023°37'1110.9
2014-Nov-11 19:33N 59°32' E 023°17'42813.3
2014-Nov-10 11:15N 54°13' E 014°35'1013.7
2014-Nov-10 10:33N 54°06' E 014°24'1111.0
2014-Nov-10 09:33N 53°56' E 014°17'2 2.1
2014-Nov-10 08:32N 53°54' E 014°16'0 0.0
2014-Nov-10 07:32N 53°54' E 014°16'0 0.0
2014-Nov-10 06:32N 53°54' E 014°16'0 0.0
2014-Nov-10 05:32N 53°54' E 014°16'0 0.0
2014-Nov-10 04:32N 53°54' E 014°16'0 0.0
2014-Nov-10 03:32N 53°54' E 014°16'0 0.0
2014-Nov-10 02:29N 53°54' E 014°16'0 0.0
2014-Nov-10 01:32N 53°54' E 014°16'0 0.0
2014-Nov-10 00:32N 53°54' E 014°16'0 0.0
2014-Nov-09 23:32N 53°54' E 014°16'4 3.7
2014-Nov-09 22:33N 53°57' E 014°16'1111.3
2014-Nov-09 21:33N 54°08' E 014°12'  

Dump ship's entire track history